createdAt,value
2019-02-20T00:00:44.145Z,3.24
2019-02-20T00:03:13.018Z,3.08
2019-02-20T00:05:41.734Z,3.02
2019-02-20T00:08:10.887Z,2.89
2019-02-20T00:10:39.666Z,3.01
2019-02-20T00:13:08.565Z,2.91
2019-02-20T00:15:37.904Z,2.82
2019-02-20T00:18:06.745Z,2.65
2019-02-20T00:20:35.507Z,2.79
2019-02-20T00:23:04.159Z,2.68
2019-02-20T00:25:33.206Z,2.68
2019-02-20T00:28:02.225Z,2.62
2019-02-20T00:30:31.086Z,2.62
2019-02-20T00:32:59.866Z,2.57
2019-02-20T00:35:28.666Z,2.60
2019-02-20T00:37:57.427Z,2.57
2019-02-20T00:40:26.347Z,2.52
2019-02-20T00:42:55.044Z,2.65
2019-02-20T00:45:31.595Z,2.57
2019-02-20T00:48:01.905Z,2.54
2019-02-20T00:50:32.324Z,2.58
2019-02-20T00:53:19.050Z,2.77
2019-02-20T00:55:47.824Z,2.76
2019-02-20T00:58:16.727Z,2.67
2019-02-20T01:00:45.430Z,2.86
2019-02-20T01:03:14.093Z,3.03
2019-02-20T01:05:42.781Z,3.15
2019-02-20T01:08:11.460Z,3.27
2019-02-20T01:10:40.079Z,3.31
2019-02-20T01:13:08.791Z,3.41
2019-02-20T01:15:37.421Z,3.49
2019-02-20T01:18:06.065Z,3.55
2019-02-20T01:20:34.769Z,3.62
2019-02-20T01:23:03.388Z,3.66
2019-02-20T01:25:32.026Z,3.69
2019-02-20T01:28:00.754Z,3.68
2019-02-20T01:30:29.378Z,3.67
2019-02-20T01:32:58.078Z,3.78
2019-02-20T01:35:26.706Z,3.81
2019-02-20T01:37:55.371Z,3.82
2019-02-20T01:40:24.051Z,3.79
2019-02-20T01:42:52.711Z,3.87
2019-02-20T01:45:21.319Z,3.85
2019-02-20T01:47:50.074Z,3.96
2019-02-20T01:50:18.766Z,3.97
2019-02-20T01:52:47.680Z,3.98
2019-02-20T01:55:16.392Z,3.98
2019-02-20T01:57:45.022Z,4.04
2019-02-20T02:00:13.711Z,4.08
2019-02-20T02:02:42.344Z,4.14
2019-02-20T02:05:15.418Z,4.21
2019-02-20T02:07:41.342Z,4.17
2019-02-20T02:10:09.989Z,4.24
2019-02-20T02:12:38.693Z,4.32
2019-02-20T02:15:09.019Z,4.31
2019-02-20T02:17:37.648Z,4.32
2019-02-20T02:20:08.888Z,4.30
2019-02-20T02:22:37.559Z,4.30
2019-02-20T02:25:06.508Z,4.37
2019-02-20T02:27:35.172Z,4.47
2019-02-20T02:30:04.910Z,4.42
2019-02-20T02:32:33.647Z,4.41
2019-02-20T02:35:02.273Z,4.48
2019-02-20T02:37:30.905Z,4.43
2019-02-20T02:39:59.594Z,4.48
2019-02-20T02:42:28.238Z,4.55
2019-02-20T02:44:56.853Z,4.50
2019-02-20T02:47:25.510Z,4.47
2019-02-20T02:49:54.143Z,4.55
2019-02-20T02:52:22.854Z,4.62
2019-02-20T02:54:51.495Z,4.61
2019-02-20T02:57:20.159Z,4.61
2019-02-20T02:59:48.918Z,4.60
2019-02-20T03:02:17.531Z,4.64
2019-02-20T03:04:46.152Z,4.62
2019-02-20T03:07:14.840Z,4.58
2019-02-20T03:09:43.475Z,4.65
2019-02-20T03:12:12.213Z,4.66
2019-02-20T03:14:40.828Z,4.60
2019-02-20T03:17:09.482Z,4.53
2019-02-20T03:19:38.134Z,4.58
2019-02-20T03:22:06.762Z,4.55
2019-02-20T03:24:35.454Z,4.64
2019-02-20T03:27:04.114Z,4.65
2019-02-20T03:29:32.763Z,4.60
2019-02-20T03:32:01.450Z,4.75
2019-02-20T03:34:30.168Z,4.64
2019-02-20T03:36:58.799Z,4.74
2019-02-20T03:39:27.585Z,4.74
2019-02-20T03:41:56.270Z,4.77
2019-02-20T03:44:24.999Z,4.73
2019-02-20T03:46:53.633Z,4.78
2019-02-20T03:49:22.278Z,4.67
2019-02-20T03:51:50.964Z,4.65
2019-02-20T03:54:19.593Z,4.64
2019-02-20T03:56:48.235Z,4.67
2019-02-20T03:59:16.973Z,4.65
2019-02-20T04:01:45.607Z,4.60
2019-02-20T04:04:14.308Z,4.53
2019-02-20T04:06:42.942Z,4.52
2019-02-20T04:09:11.583Z,4.56
2019-02-20T04:11:40.276Z,4.64
2019-02-20T04:14:08.903Z,4.66
2019-02-20T04:16:37.531Z,4.63
2019-02-20T04:19:06.200Z,4.69
2019-02-20T04:21:34.832Z,4.73
2019-02-20T04:24:03.562Z,4.67
2019-02-20T04:26:32.257Z,4.71
2019-02-20T04:29:00.898Z,4.60
2019-02-20T04:31:29.605Z,4.63
2019-02-20T04:33:58.242Z,4.56
2019-02-20T04:36:26.872Z,4.62
2019-02-20T04:38:55.543Z,4.55
2019-02-20T04:41:24.185Z,4.57
2019-02-20T04:43:52.877Z,4.46
2019-02-20T04:46:21.516Z,4.50
2019-02-20T04:48:50.153Z,4.49
2019-02-20T04:51:18.859Z,4.46
2019-02-20T04:53:47.496Z,4.42
2019-02-20T04:56:16.138Z,4.45
2019-02-20T04:58:45.503Z,4.54
2019-02-20T05:01:14.144Z,4.47
2019-02-20T05:03:42.848Z,4.42
2019-02-20T05:06:11.493Z,4.51
2019-02-20T05:08:40.119Z,4.49
2019-02-20T05:11:08.783Z,4.51
2019-02-20T05:13:37.483Z,4.45
2019-02-20T05:16:06.124Z,4.43
2019-02-20T05:18:34.768Z,4.48
2019-02-20T05:21:03.451Z,4.46
2019-02-20T05:23:32.139Z,4.54
2019-02-20T05:26:00.764Z,4.41
2019-02-20T05:28:29.395Z,4.38
2019-02-20T05:30:58.067Z,4.38
2019-02-20T05:33:26.688Z,4.38
2019-02-20T05:35:55.388Z,4.34
2019-02-20T05:38:24.019Z,4.36
2019-02-20T05:40:52.640Z,4.30
2019-02-20T05:43:21.349Z,4.24
2019-02-20T05:45:49.968Z,4.26
2019-02-20T05:48:18.603Z,4.27
2019-02-20T05:50:47.276Z,4.15
2019-02-20T05:53:15.909Z,4.16
2019-02-20T05:55:44.604Z,4.15
2019-02-20T05:58:13.247Z,4.14
2019-02-20T06:00:41.905Z,4.19
2019-02-20T06:03:10.656Z,4.14
2019-02-20T06:05:39.290Z,4.26
2019-02-20T06:08:07.929Z,4.19
2019-02-20T06:10:36.634Z,4.19
2019-02-20T06:13:05.298Z,4.24
2019-02-20T06:15:34.017Z,4.12
2019-02-20T06:18:02.655Z,4.21
2019-02-20T06:20:31.357Z,4.29
2019-02-20T06:23:00.068Z,4.31
2019-02-20T06:25:28.726Z,4.38
2019-02-20T06:27:57.378Z,4.27
2019-02-20T06:30:26.044Z,4.31
2019-02-20T06:32:54.688Z,4.30
2019-02-20T06:35:23.393Z,4.24
2019-02-20T06:37:52.033Z,4.36
2019-02-20T06:40:20.673Z,4.35
2019-02-20T06:42:49.388Z,4.32
2019-02-20T06:45:18.047Z,4.27
2019-02-20T06:47:46.707Z,4.33
2019-02-20T06:50:15.403Z,4.27
2019-02-20T06:52:44.073Z,4.24
2019-02-20T06:55:13.070Z,4.33
2019-02-20T06:57:41.693Z,4.25
2019-02-20T07:00:14.223Z,4.31
2019-02-20T07:02:42.948Z,4.47
2019-02-20T07:05:31.676Z,4.49
2019-02-20T07:08:15.566Z,4.78
2019-02-20T07:10:53.378Z,4.76
2019-02-20T07:13:24.940Z,4.80
2019-02-20T07:16:02.744Z,4.74
2019-02-20T07:18:34.567Z,4.62
2019-02-20T07:21:12.232Z,4.58
2019-02-20T07:23:59.122Z,4.60
2019-02-20T07:26:40.196Z,4.66
2019-02-20T07:29:23.845Z,4.62
2019-02-20T07:31:52.488Z,4.65
2019-02-20T07:34:21.127Z,4.60
2019-02-20T07:36:49.833Z,4.68
2019-02-20T07:39:18.493Z,4.62
2019-02-20T07:41:47.150Z,4.62
2019-02-20T07:44:15.868Z,4.63
2019-02-20T07:46:44.513Z,4.64
2019-02-20T07:49:13.159Z,4.60
2019-02-20T07:51:41.828Z,4.54
2019-02-20T07:54:10.472Z,4.67
2019-02-20T07:56:39.209Z,4.64
2019-02-20T07:59:07.879Z,4.69
2019-02-20T08:01:36.509Z,4.73
2019-02-20T08:04:05.223Z,4.73
2019-02-20T08:06:33.863Z,4.70
2019-02-20T08:09:02.505Z,4.74
2019-02-20T08:11:31.201Z,4.83
2019-02-20T08:13:59.907Z,4.87
2019-02-20T08:16:28.633Z,4.91
2019-02-20T08:18:57.273Z,4.91
2019-02-20T08:21:25.913Z,4.95
2019-02-20T08:23:54.638Z,5.03
2019-02-20T08:26:23.368Z,5.00
2019-02-20T08:28:52.014Z,5.10
2019-02-20T08:31:20.710Z,5.16
2019-02-20T08:33:49.379Z,5.15
2019-02-20T08:36:18.118Z,5.16
2019-02-20T08:38:46.789Z,5.27
2019-02-20T08:41:15.504Z,5.37
2019-02-20T08:43:44.224Z,5.52
2019-02-20T08:46:12.865Z,5.58
2019-02-20T08:48:41.516Z,5.68
2019-02-20T08:51:10.194Z,5.81
2019-02-20T08:53:38.839Z,5.90
2019-02-20T08:56:07.636Z,5.81
2019-02-20T08:58:36.351Z,5.97
2019-02-20T09:01:05.016Z,6.15
2019-02-20T09:03:33.721Z,6.11
2019-02-20T09:06:02.433Z,6.01
2019-02-20T09:08:31.074Z,6.09
2019-02-20T09:10:59.708Z,6.23
2019-02-20T09:13:28.386Z,6.31
2019-02-20T09:15:57.019Z,6.34
2019-02-20T09:18:25.725Z,6.31
2019-02-20T09:20:54.375Z,6.42
2019-02-20T09:23:23.009Z,6.44
2019-02-20T09:25:51.719Z,6.47
2019-02-20T09:28:20.367Z,6.55
2019-02-20T09:30:49.024Z,6.61
2019-02-20T09:33:17.714Z,6.71
2019-02-20T09:35:46.350Z,6.88
2019-02-20T09:38:15.067Z,6.94
2019-02-20T09:40:43.721Z,7.00
2019-02-20T09:43:12.362Z,7.09
2019-02-20T09:45:42.893Z,7.18
2019-02-20T09:48:11.474Z,7.28
2019-02-20T09:50:40.123Z,7.52
2019-02-20T09:53:08.834Z,7.48
2019-02-20T09:55:37.472Z,7.66
2019-02-20T09:58:06.190Z,7.93
2019-02-20T10:00:34.850Z,8.50
2019-02-20T10:03:03.494Z,9.38
2019-02-20T10:05:32.208Z,9.39
2019-02-20T10:08:00.859Z,9.18
2019-02-20T10:10:29.497Z,8.94
2019-02-20T10:12:58.175Z,9.48
2019-02-20T10:15:26.810Z,9.14
2019-02-20T10:17:55.537Z,8.82
2019-02-20T10:20:24.188Z,8.68
2019-02-20T10:22:52.820Z,8.97
2019-02-20T10:25:21.537Z,9.02
2019-02-20T10:27:50.167Z,9.50
2019-02-20T10:30:19.822Z,9.25
2019-02-20T10:32:48.489Z,9.37
2019-02-20T10:35:17.123Z,8.87
2019-02-20T10:37:45.868Z,8.59
2019-02-20T10:40:14.516Z,8.32
2019-02-20T10:42:43.155Z,8.72
2019-02-20T10:45:12.967Z,8.64
2019-02-20T10:47:41.603Z,8.52
2019-02-20T10:50:14.470Z,8.27
2019-02-20T10:52:43.152Z,8.33
2019-02-20T10:55:11.843Z,8.31
2019-02-20T10:57:40.565Z,8.37
2019-02-20T11:00:23.423Z,8.48
2019-02-20T11:02:44.087Z,8.33
2019-02-20T11:05:12.828Z,8.32
2019-02-20T11:07:41.466Z,8.42
2019-02-20T11:10:10.123Z,8.67
2019-02-20T11:12:38.852Z,8.60
2019-02-20T11:15:08.319Z,8.24
2019-02-20T11:17:37.508Z,8.13
2019-02-20T11:20:09.253Z,8.03
2019-02-20T11:22:37.908Z,8.02
2019-02-20T11:25:11.959Z,7.98
2019-02-20T11:27:40.641Z,7.94
2019-02-20T11:30:17.949Z,8.06
2019-02-20T11:32:46.593Z,8.31
2019-02-20T11:35:15.238Z,8.20
2019-02-20T11:37:43.967Z,8.37
2019-02-20T11:40:13.504Z,8.55
2019-02-20T11:42:42.128Z,8.65
2019-02-20T11:45:15.384Z,8.72
2019-02-20T11:47:44.093Z,8.58
2019-02-20T11:50:12.724Z,8.37
2019-02-20T11:52:41.353Z,8.34
2019-02-20T11:55:11.734Z,8.47
2019-02-20T11:57:40.583Z,8.38
2019-02-20T12:00:12.083Z,8.49
2019-02-20T12:02:42.183Z,8.38
2019-02-20T12:05:11.077Z,8.12
2019-02-20T12:07:39.723Z,7.96
2019-02-20T12:10:12.673Z,7.92
2019-02-20T12:12:41.393Z,7.95
2019-02-20T12:15:10.040Z,8.09
2019-02-20T12:17:38.766Z,8.02
2019-02-20T12:20:08.623Z,7.86
2019-02-20T12:22:37.258Z,7.90
2019-02-20T12:25:08.606Z,8.05
2019-02-20T12:27:37.238Z,8.20
2019-02-20T12:30:07.949Z,8.26
2019-02-20T12:32:36.580Z,8.22
2019-02-20T12:35:06.909Z,7.92
2019-02-20T12:37:35.623Z,7.79
2019-02-20T12:40:05.664Z,7.91
2019-02-20T12:42:34.307Z,7.82
2019-02-20T12:45:02.963Z,8.04
2019-02-20T12:47:31.624Z,7.74
2019-02-20T12:50:00.390Z,7.76
2019-02-20T12:52:29.038Z,7.78
2019-02-20T12:54:57.679Z,7.81
2019-02-20T12:57:26.588Z,7.87
2019-02-20T12:59:55.242Z,7.99
2019-02-20T13:02:23.894Z,7.92
2019-02-20T13:04:54.127Z,8.18
2019-02-20T13:07:22.775Z,8.34
2019-02-20T13:09:51.478Z,8.44
2019-02-20T13:12:20.118Z,8.46
2019-02-20T13:14:48.753Z,8.42
2019-02-20T13:17:17.445Z,8.40
2019-02-20T13:19:46.067Z,8.42
2019-02-20T13:22:14.707Z,8.47
2019-02-20T13:24:43.986Z,8.59
2019-02-20T13:27:12.692Z,8.60
2019-02-20T13:29:41.393Z,8.66
2019-02-20T13:32:10.032Z,8.44
2019-02-20T13:34:38.668Z,8.34
2019-02-20T13:37:07.368Z,8.43
2019-02-20T13:39:35.998Z,8.65
2019-02-20T13:42:04.632Z,8.37
2019-02-20T13:44:33.682Z,8.44
2019-02-20T13:47:02.323Z,8.48
2019-02-20T13:49:31.021Z,8.47
2019-02-20T13:51:59.733Z,8.51
2019-02-20T13:54:28.373Z,8.49
2019-02-20T13:57:01.812Z,8.41
2019-02-20T13:59:27.477Z,8.21
2019-02-20T14:01:56.386Z,8.31
2019-02-20T14:04:25.104Z,8.20
2019-02-20T14:06:53.753Z,7.98
2019-02-20T14:09:22.473Z,7.93
2019-02-20T14:11:51.183Z,7.86
2019-02-20T14:14:19.815Z,7.87
2019-02-20T14:16:48.508Z,8.02
2019-02-20T14:19:17.164Z,7.86
2019-02-20T14:21:45.863Z,8.02
2019-02-20T14:24:14.500Z,8.10
2019-02-20T14:26:43.123Z,8.17
2019-02-20T14:29:12.049Z,7.92
2019-02-20T14:31:42.778Z,7.71
2019-02-20T14:34:11.533Z,7.58
2019-02-20T14:36:40.407Z,7.56
2019-02-20T14:39:09.353Z,7.56
2019-02-20T14:41:38.273Z,7.58
2019-02-20T14:44:07.123Z,7.69
2019-02-20T14:46:36.363Z,7.63
2019-02-20T14:49:05.353Z,7.62
2019-02-20T14:51:34.194Z,7.60
2019-02-20T14:54:03.038Z,7.61
2019-02-20T14:56:32.027Z,7.64
2019-02-20T14:59:00.872Z,7.60
2019-02-20T15:01:29.793Z,7.54
2019-02-20T15:03:58.633Z,7.84
2019-02-20T15:06:27.952Z,7.88
2019-02-20T15:08:56.867Z,7.92
2019-02-20T15:11:25.787Z,8.05
2019-02-20T15:13:55.487Z,8.04
2019-02-20T15:16:24.483Z,8.07
2019-02-20T15:18:53.331Z,8.01
2019-02-20T15:21:22.348Z,8.01
2019-02-20T15:23:51.282Z,7.96
2019-02-20T15:26:23.476Z,7.86
2019-02-20T15:28:52.719Z,7.62
2019-02-20T15:31:21.858Z,7.58
2019-02-20T15:33:50.787Z,7.33
2019-02-20T15:36:19.777Z,7.22
2019-02-20T15:38:48.909Z,7.10
2019-02-20T15:41:18.093Z,7.12
2019-02-20T15:43:47.136Z,6.93
2019-02-20T15:46:16.294Z,6.86
2019-02-20T15:48:45.487Z,6.79
2019-02-20T15:51:14.590Z,6.79
2019-02-20T15:53:45.803Z,6.72
2019-02-20T15:56:15.861Z,6.73
2019-02-20T15:58:45.083Z,6.69
2019-02-20T16:01:14.377Z,6.68
2019-02-20T16:03:43.512Z,6.77
2019-02-20T16:06:12.531Z,6.75
2019-02-20T16:08:41.928Z,6.58
2019-02-20T16:11:10.958Z,6.58
2019-02-20T16:13:40.056Z,6.56
2019-02-20T16:16:09.283Z,6.58
2019-02-20T16:18:39.327Z,6.70
2019-02-20T16:21:08.562Z,6.70
2019-02-20T16:23:39.163Z,6.71
2019-02-20T16:26:08.315Z,6.62
2019-02-20T16:28:37.363Z,6.40
2019-02-20T16:31:06.593Z,6.43
2019-02-20T16:33:35.776Z,6.43
2019-02-20T16:36:04.823Z,6.42
2019-02-20T16:38:34.018Z,6.36
2019-02-20T16:41:04.644Z,6.33
2019-02-20T16:43:34.079Z,6.28
2019-02-20T16:46:03.117Z,6.24
2019-02-20T16:48:32.263Z,6.27
2019-02-20T16:51:01.544Z,6.06
2019-02-20T16:53:30.688Z,5.97
2019-02-20T16:56:00.360Z,5.92
2019-02-20T16:58:29.517Z,5.87
2019-02-20T17:00:58.727Z,5.78
2019-02-20T17:03:28.057Z,5.73
2019-02-20T17:05:57.092Z,5.80
2019-02-20T17:08:26.237Z,5.79
2019-02-20T17:10:55.917Z,5.81
2019-02-20T17:13:25.071Z,5.80
2019-02-20T17:15:54.198Z,5.75
2019-02-20T17:18:23.379Z,5.74
2019-02-20T17:20:52.426Z,5.79
2019-02-20T17:23:21.735Z,5.86
2019-02-20T17:25:51.263Z,5.84
2019-02-20T17:28:20.308Z,5.84
2019-02-20T17:30:49.553Z,5.77
2019-02-20T17:33:18.524Z,5.77
2019-02-20T17:35:47.752Z,5.65
2019-02-20T17:38:17.044Z,5.70
2019-02-20T17:40:46.174Z,5.63
2019-02-20T17:43:15.495Z,5.54
2019-02-20T17:45:44.560Z,5.50
2019-02-20T17:48:13.778Z,5.52
2019-02-20T17:50:42.907Z,5.46
2019-02-20T17:53:11.932Z,5.44
2019-02-20T17:55:42.698Z,5.38
2019-02-20T17:58:15.200Z,5.31
2019-02-20T18:00:42.946Z,5.24
2019-02-20T18:03:12.189Z,5.22
2019-02-20T18:05:41.381Z,5.17
2019-02-20T18:08:10.459Z,5.18
2019-02-20T18:10:39.604Z,5.12
2019-02-20T18:13:08.670Z,5.07
2019-02-20T18:15:37.873Z,5.17
2019-02-20T18:18:07.122Z,5.28
2019-02-20T18:20:36.317Z,5.29
2019-02-20T18:23:05.497Z,5.35
2019-02-20T18:25:34.662Z,5.37
2019-02-20T18:28:03.949Z,5.35
2019-02-20T18:30:33.169Z,5.43
2019-02-20T18:33:02.370Z,5.43
2019-02-20T18:35:31.739Z,5.39
2019-02-20T18:38:01.060Z,5.38
2019-02-20T18:40:30.257Z,5.33
2019-02-20T18:42:59.692Z,5.38
2019-02-20T18:45:29.084Z,5.33
2019-02-20T18:47:58.349Z,5.36
2019-02-20T18:50:27.948Z,5.36
2019-02-20T18:52:57.329Z,5.29
2019-02-20T18:55:26.711Z,5.38
2019-02-20T18:57:55.968Z,5.28
2019-02-20T19:00:25.114Z,5.35
2019-02-20T19:02:54.408Z,5.26
2019-02-20T19:05:23.699Z,5.26
2019-02-20T19:07:52.978Z,5.17
2019-02-20T19:10:33.988Z,5.17
2019-02-20T19:13:39.094Z,5.18
2019-02-20T19:16:38.251Z,5.25
2019-02-20T19:19:25.229Z,5.35
2019-02-20T19:22:12.191Z,5.30
2019-02-20T19:24:46.995Z,5.41
2019-02-20T19:27:33.972Z,5.24
2019-02-20T19:30:22.493Z,5.17
2019-02-20T19:33:06.418Z,5.17
2019-02-20T19:35:58.464Z,4.96
2019-02-20T19:38:50.141Z,5.01
2019-02-20T19:41:39.073Z,4.83
2019-02-20T19:44:17.317Z,4.94
2019-02-20T19:46:52.393Z,4.89
2019-02-20T19:49:47.319Z,4.78
2019-02-20T19:52:28.174Z,4.57
2019-02-20T19:55:06.255Z,4.73
2019-02-20T19:57:47.509Z,4.71
2019-02-20T20:00:42.010Z,4.78
2019-02-20T20:03:29.130Z,4.68
2019-02-20T20:06:01.127Z,4.58
2019-02-20T20:08:33.365Z,4.63
2019-02-20T20:11:14.331Z,4.65
2019-02-20T20:14:15.368Z,4.86
2019-02-20T20:16:59.040Z,4.73
2019-02-20T20:19:42.886Z,4.74
2019-02-20T20:22:37.442Z,4.75
2019-02-20T20:25:13.068Z,4.75
2019-02-20T20:28:08.929Z,4.90
2019-02-20T20:30:57.596Z,4.90
2019-02-20T20:33:38.031Z,5.05
2019-02-20T20:36:44.694Z,5.03
2019-02-20T20:39:31.697Z,4.99
2019-02-20T20:42:21.856Z,5.06
2019-02-20T20:45:05.537Z,5.16
2019-02-20T20:47:37.635Z,5.18
2019-02-20T20:50:21.777Z,5.17
2019-02-20T20:53:02.147Z,5.06
2019-02-20T20:56:00.375Z,5.02
2019-02-20T20:58:44.180Z,4.93
2019-02-20T21:01:36.560Z,4.90
2019-02-20T21:04:20.585Z,5.01
2019-02-20T21:07:26.427Z,5.09
2019-02-20T21:09:58.572Z,5.09
2019-02-20T21:12:39.316Z,5.08
2019-02-20T21:15:29.638Z,5.01
2019-02-20T21:18:16.794Z,4.93
2019-02-20T21:21:10.275Z,4.91
2019-02-20T21:23:54.195Z,4.88
2019-02-20T21:26:35.127Z,4.98
2019-02-20T21:29:13.101Z,5.02
2019-02-20T21:31:57.355Z,5.03
2019-02-20T21:34:32.295Z,4.99
2019-02-20T21:37:39.134Z,4.94
2019-02-20T21:40:16.676Z,5.04
2019-02-20T21:43:05.156Z,5.07
2019-02-20T21:45:39.698Z,5.12
2019-02-20T21:48:43.798Z,5.14
2019-02-20T21:51:15.596Z,5.24
2019-02-20T21:54:21.037Z,5.21
2019-02-20T21:57:01.578Z,5.19
2019-02-20T21:59:45.198Z,5.24
2019-02-20T22:02:31.879Z,5.18
2019-02-20T22:05:13.037Z,5.26
2019-02-20T22:07:56.619Z,5.19
2019-02-20T22:10:46.196Z,5.20
2019-02-20T22:13:29.947Z,5.21
2019-02-20T22:16:35.079Z,5.24
2019-02-20T22:19:21.085Z,5.21
2019-02-20T22:22:15.384Z,5.29
2019-02-20T22:24:47.237Z,5.07
2019-02-20T22:27:43.092Z,4.91
2019-02-20T22:30:23.648Z,4.84
2019-02-20T22:33:22.357Z,4.79
2019-02-20T22:35:56.904Z,4.75
2019-02-20T22:38:48.484Z,4.76
2019-02-20T22:41:38.540Z,4.77
2019-02-20T22:44:43.918Z,4.78
2019-02-20T22:47:27.577Z,4.94
2019-02-20T22:50:05.318Z,5.02
2019-02-20T22:52:49.127Z,5.10
2019-02-20T22:55:38.937Z,5.18
2019-02-20T22:58:22.739Z,5.15
2019-02-20T23:01:00.757Z,5.18
2019-02-20T23:04:07.397Z,5.16
2019-02-20T23:06:44.777Z,5.30
2019-02-20T23:09:21.938Z,5.25
2019-02-20T23:12:09.143Z,5.21
2019-02-20T23:14:55.717Z,5.23
2019-02-20T23:17:26.955Z,5.24
2019-02-20T23:19:55.462Z,5.22
2019-02-20T23:22:24.522Z,5.34
2019-02-20T23:24:53.522Z,5.32
2019-02-20T23:27:22.483Z,5.37
2019-02-20T23:29:51.385Z,5.38
2019-02-20T23:32:20.926Z,5.37
2019-02-20T23:34:49.847Z,5.30
2019-02-20T23:37:18.684Z,5.34
2019-02-20T23:39:47.542Z,5.40
2019-02-20T23:42:16.466Z,5.44
2019-02-20T23:44:45.432Z,5.47
2019-02-20T23:47:14.460Z,5.45
2019-02-20T23:49:43.391Z,5.49
2019-02-20T23:52:12.227Z,5.47
2019-02-20T23:54:41.145Z,5.45
2019-02-20T23:57:10.012Z,5.42
2019-02-20T23:59:38.873Z,5.57
